sensor_id;sensor_type;location;lat;lon;timestamp;P1;durP1;ratioP1;P2;durP2;ratioP2
46463;SDS011;32161;48.148;-1.554;2023-04-15T00:01:57;3.83;;;0.65;;
46463;SDS011;32161;48.148;-1.554;2023-04-15T00:04:25;3.63;;;0.80;;
46463;SDS011;32161;48.148;-1.554;2023-04-15T00:06:53;3.05;;;0.85;;
46463;SDS011;32161;48.148;-1.554;2023-04-15T00:09:20;4.53;;;0.80;;
46463;SDS011;32161;48.148;-1.554;2023-04-15T00:11:49;2.97;;;0.70;;
46463;SDS011;32161;48.148;-1.554;2023-04-15T00:14:17;1.65;;;0.80;;
46463;SDS011;32161;48.148;-1.554;2023-04-15T00:16:45;2.03;;;0.60;;
46463;SDS011;32161;48.148;-1.554;2023-04-15T00:19:14;3.75;;;0.70;;
46463;SDS011;32161;48.148;-1.554;2023-04-15T00:21:41;6.40;;;1.10;;
46463;SDS011;32161;48.148;-1.554;2023-04-15T00:24:09;6.82;;;0.90;;
46463;SDS011;32161;48.148;-1.554;2023-04-15T00:26:37;9.02;;;0.98;;
46463;SDS011;32161;48.148;-1.554;2023-04-15T00:29:06;2.35;;;0.55;;
46463;SDS011;32161;48.148;-1.554;2023-04-15T00:31:34;5.85;;;1.08;;
46463;SDS011;32161;48.148;-1.554;2023-04-15T00:34:01;2.08;;;0.90;;
46463;SDS011;32161;48.148;-1.554;2023-04-15T00:36:29;3.95;;;0.80;;
46463;SDS011;32161;48.148;-1.554;2023-04-15T00:38:58;2.60;;;0.80;;
46463;SDS011;32161;48.148;-1.554;2023-04-15T00:41:25;6.78;;;1.20;;
46463;SDS011;32161;48.148;-1.554;2023-04-15T00:43:53;7.50;;;1.00;;
46463;SDS011;32161;48.148;-1.554;2023-04-15T00:46:22;7.43;;;1.52;;
46463;SDS011;32161;48.148;-1.554;2023-04-15T00:48:51;8.05;;;1.10;;
46463;SDS011;32161;48.148;-1.554;2023-04-15T00:51:20;2.38;;;0.55;;
46463;SDS011;32161;48.148;-1.554;2023-04-15T00:53:48;5.72;;;1.00;;
46463;SDS011;32161;48.148;-1.554;2023-04-15T00:56:17;4.22;;;1.08;;
46463;SDS011;32161;48.148;-1.554;2023-04-15T00:58:48;5.60;;;0.85;;
46463;SDS011;32161;48.148;-1.554;2023-04-15T01:01:16;4.85;;;0.80;;
46463;SDS011;32161;48.148;-1.554;2023-04-15T01:03:47;6.68;;;0.95;;
46463;SDS011;32161;48.148;-1.554;2023-04-15T01:06:16;6.25;;;1.13;;
46463;SDS011;32161;48.148;-1.554;2023-04-15T01:08:44;6.47;;;0.80;;
46463;SDS011;32161;48.148;-1.554;2023-04-15T01:11:12;5.45;;;0.90;;
46463;SDS011;32161;48.148;-1.554;2023-04-15T01:13:41;7.15;;;1.70;;
46463;SDS011;32161;48.148;-1.554;2023-04-15T01:16:09;2.72;;;0.80;;
46463;SDS011;32161;48.148;-1.554;2023-04-15T01:18:37;10.48;;;1.10;;
46463;SDS011;32161;48.148;-1.554;2023-04-15T01:21:07;5.25;;;1.27;;
46463;SDS011;32161;48.148;-1.554;2023-04-15T01:23:36;4.82;;;1.15;;
46463;SDS011;32161;48.148;-1.554;2023-04-15T01:26:06;6.28;;;0.98;;
46463;SDS011;32161;48.148;-1.554;2023-04-15T01:28:34;6.25;;;1.00;;
46463;SDS011;32161;48.148;-1.554;2023-04-15T01:31:06;4.22;;;0.65;;
46463;SDS011;32161;48.148;-1.554;2023-04-15T01:33:35;4.53;;;1.13;;
46463;SDS011;32161;48.148;-1.554;2023-04-15T01:36:03;5.93;;;0.80;;
46463;SDS011;32161;48.148;-1.554;2023-04-15T01:38:33;6.53;;;1.20;;
46463;SDS011;32161;48.148;-1.554;2023-04-15T01:41:02;8.43;;;0.95;;
46463;SDS011;32161;48.148;-1.554;2023-04-15T01:43:33;4.55;;;1.00;;
46463;SDS011;32161;48.148;-1.554;2023-04-15T01:46:01;5.95;;;1.05;;
46463;SDS011;32161;48.148;-1.554;2023-04-15T01:48:29;3.70;;;0.82;;
46463;SDS011;32161;48.148;-1.554;2023-04-15T01:50:57;4.97;;;0.80;;
46463;SDS011;32161;48.148;-1.554;2023-04-15T01:53:25;2.25;;;0.70;;
46463;SDS011;32161;48.148;-1.554;2023-04-15T01:55:53;4.63;;;1.08;;
46463;SDS011;32161;48.148;-1.554;2023-04-15T01:58:21;2.83;;;0.80;;
46463;SDS011;32161;48.148;-1.554;2023-04-15T02:00:50;5.82;;;1.10;;
46463;SDS011;32161;48.148;-1.554;2023-04-15T02:03:17;3.30;;;0.80;;
46463;SDS011;32161;48.148;-1.554;2023-04-15T02:05:45;10.13;;;0.85;;
46463;SDS011;32161;48.148;-1.554;2023-04-15T02:08:13;7.57;;;2.00;;
46463;SDS011;32161;48.148;-1.554;2023-04-15T02:10:41;5.20;;;0.82;;
46463;SDS011;32161;48.148;-1.554;2023-04-15T02:13:08;2.95;;;1.00;;
46463;SDS011;32161;48.148;-1.554;2023-04-15T02:15:36;5.40;;;0.90;;
46463;SDS011;32161;48.148;-1.554;2023-04-15T02:18:05;6.32;;;1.15;;
46463;SDS011;32161;48.148;-1.554;2023-04-15T02:20:32;5.45;;;1.50;;
46463;SDS011;32161;48.148;-1.554;2023-04-15T02:23:02;2.88;;;0.90;;
46463;SDS011;32161;48.148;-1.554;2023-04-15T02:25:31;8.52;;;1.00;;
46463;SDS011;32161;48.148;-1.554;2023-04-15T02:27:59;6.20;;;1.00;;
46463;SDS011;32161;48.148;-1.554;2023-04-15T02:30:26;5.80;;;1.27;;
46463;SDS011;32161;48.148;-1.554;2023-04-15T02:32:54;4.47;;;1.15;;
46463;SDS011;32161;48.148;-1.554;2023-04-15T02:35:23;4.53;;;1.02;;
46463;SDS011;32161;48.148;-1.554;2023-04-15T02:37:51;8.98;;;1.20;;
46463;SDS011;32161;48.148;-1.554;2023-04-15T02:40:19;6.20;;;1.10;;
46463;SDS011;32161;48.148;-1.554;2023-04-15T02:42:46;5.30;;;0.90;;
46463;SDS011;32161;48.148;-1.554;2023-04-15T02:45:14;4.18;;;1.27;;
46463;SDS011;32161;48.148;-1.554;2023-04-15T02:47:44;3.03;;;1.30;;
46463;SDS011;32161;48.148;-1.554;2023-04-15T02:50:12;6.53;;;0.90;;
46463;SDS011;32161;48.148;-1.554;2023-04-15T02:52:41;7.30;;;1.20;;
46463;SDS011;32161;48.148;-1.554;2023-04-15T02:55:10;9.10;;;1.90;;
46463;SDS011;32161;48.148;-1.554;2023-04-15T02:57:37;5.45;;;0.95;;
46463;SDS011;32161;48.148;-1.554;2023-04-15T03:00:07;4.30;;;0.90;;
46463;SDS011;32161;48.148;-1.554;2023-04-15T03:02:36;8.40;;;1.40;;
46463;SDS011;32161;48.148;-1.554;2023-04-15T03:05:05;5.72;;;0.98;;
46463;SDS011;32161;48.148;-1.554;2023-04-15T03:07:37;2.75;;;0.90;;
46463;SDS011;32161;48.148;-1.554;2023-04-15T03:10:07;5.63;;;1.08;;
46463;SDS011;32161;48.148;-1.554;2023-04-15T03:12:36;6.30;;;2.03;;
46463;SDS011;32161;48.148;-1.554;2023-04-15T03:15:04;10.27;;;1.75;;
46463;SDS011;32161;48.148;-1.554;2023-04-15T03:17:34;6.30;;;0.93;;
46463;SDS011;32161;48.148;-1.554;2023-04-15T03:20:02;8.90;;;1.20;;
46463;SDS011;32161;48.148;-1.554;2023-04-15T03:22:31;5.82;;;1.10;;
46463;SDS011;32161;48.148;-1.554;2023-04-15T03:24:59;10.63;;;1.33;;
46463;SDS011;32161;48.148;-1.554;2023-04-15T03:27:28;5.88;;;1.08;;
46463;SDS011;32161;48.148;-1.554;2023-04-15T03:29:56;8.82;;;1.40;;
46463;SDS011;32161;48.148;-1.554;2023-04-15T03:32:23;7.60;;;1.40;;
46463;SDS011;32161;48.148;-1.554;2023-04-15T03:34:51;8.95;;;1.63;;
46463;SDS011;32161;48.148;-1.554;2023-04-15T03:37:18;4.65;;;1.20;;
46463;SDS011;32161;48.148;-1.554;2023-04-15T03:39:46;4.82;;;1.10;;
46463;SDS011;32161;48.148;-1.554;2023-04-15T03:42:13;8.98;;;1.48;;
46463;SDS011;32161;48.148;-1.554;2023-04-15T03:44:42;6.85;;;1.17;;
46463;SDS011;32161;48.148;-1.554;2023-04-15T03:47:10;6.47;;;1.52;;
46463;SDS011;32161;48.148;-1.554;2023-04-15T03:49:38;9.65;;;1.45;;
46463;SDS011;32161;48.148;-1.554;2023-04-15T03:52:05;6.57;;;1.38;;
46463;SDS011;32161;48.148;-1.554;2023-04-15T03:54:33;8.82;;;1.30;;
46463;SDS011;32161;48.148;-1.554;2023-04-15T03:57:00;5.63;;;1.42;;
46463;SDS011;32161;48.148;-1.554;2023-04-15T03:59:28;8.18;;;1.42;;
46463;SDS011;32161;48.148;-1.554;2023-04-15T04:01:58;6.05;;;1.75;;
46463;SDS011;32161;48.148;-1.554;2023-04-15T04:04:25;5.13;;;1.00;;
46463;SDS011;32161;48.148;-1.554;2023-04-15T04:06:53;10.77;;;1.17;;
46463;SDS011;32161;48.148;-1.554;2023-04-15T04:09:20;5.28;;;1.77;;
46463;SDS011;32161;48.148;-1.554;2023-04-15T04:11:48;12.18;;;2.00;;
46463;SDS011;32161;48.148;-1.554;2023-04-15T04:14:16;10.38;;;2.78;;
46463;SDS011;32161;48.148;-1.554;2023-04-15T04:16:43;11.57;;;1.83;;
46463;SDS011;32161;48.148;-1.554;2023-04-15T04:19:12;9.10;;;1.20;;
46463;SDS011;32161;48.148;-1.554;2023-04-15T04:21:43;10.18;;;1.48;;
46463;SDS011;32161;48.148;-1.554;2023-04-15T04:24:11;10.07;;;1.48;;
46463;SDS011;32161;48.148;-1.554;2023-04-15T04:26:38;10.90;;;1.58;;
46463;SDS011;32161;48.148;-1.554;2023-04-15T04:29:06;10.35;;;1.73;;
46463;SDS011;32161;48.148;-1.554;2023-04-15T04:31:34;5.10;;;1.40;;
46463;SDS011;32161;48.148;-1.554;2023-04-15T04:34:01;7.60;;;1.48;;
46463;SDS011;32161;48.148;-1.554;2023-04-15T04:36:30;3.50;;;1.00;;
46463;SDS011;32161;48.148;-1.554;2023-04-15T04:38:58;8.25;;;1.15;;
46463;SDS011;32161;48.148;-1.554;2023-04-15T04:41:26;8.18;;;1.25;;
46463;SDS011;32161;48.148;-1.554;2023-04-15T04:43:54;8.70;;;1.30;;
46463;SDS011;32161;48.148;-1.554;2023-04-15T04:46:21;6.20;;;1.80;;
46463;SDS011;32161;48.148;-1.554;2023-04-15T04:48:49;5.63;;;1.60;;
46463;SDS011;32161;48.148;-1.554;2023-04-15T04:51:16;8.00;;;2.05;;
46463;SDS011;32161;48.148;-1.554;2023-04-15T04:53:46;9.75;;;1.70;;
46463;SDS011;32161;48.148;-1.554;2023-04-15T04:56:14;10.20;;;1.65;;
46463;SDS011;32161;48.148;-1.554;2023-04-15T04:58:41;7.65;;;1.35;;
46463;SDS011;32161;48.148;-1.554;2023-04-15T05:01:09;9.85;;;1.45;;
46463;SDS011;32161;48.148;-1.554;2023-04-15T05:03:37;6.15;;;1.48;;
46463;SDS011;32161;48.148;-1.554;2023-04-15T05:06:04;11.98;;;1.70;;
46463;SDS011;32161;48.148;-1.554;2023-04-15T05:08:33;6.13;;;1.65;;
46463;SDS011;32161;48.148;-1.554;2023-04-15T05:11:02;10.80;;;2.47;;
46463;SDS011;32161;48.148;-1.554;2023-04-15T05:13:31;16.48;;;1.80;;
46463;SDS011;32161;48.148;-1.554;2023-04-15T05:16:03;10.90;;;2.25;;
46463;SDS011;32161;48.148;-1.554;2023-04-15T05:18:31;6.32;;;1.52;;
46463;SDS011;32161;48.148;-1.554;2023-04-15T05:20:59;6.97;;;1.60;;
46463;SDS011;32161;48.148;-1.554;2023-04-15T05:23:27;9.52;;;2.70;;
46463;SDS011;32161;48.148;-1.554;2023-04-15T05:25:55;12.57;;;1.58;;
46463;SDS011;32161;48.148;-1.554;2023-04-15T05:28:24;12.98;;;2.25;;
46463;SDS011;32161;48.148;-1.554;2023-04-15T05:30:51;9.65;;;1.80;;
46463;SDS011;32161;48.148;-1.554;2023-04-15T05:33:19;11.63;;;1.98;;
46463;SDS011;32161;48.148;-1.554;2023-04-15T05:35:47;7.55;;;1.80;;
46463;SDS011;32161;48.148;-1.554;2023-04-15T05:38:14;10.98;;;2.20;;
46463;SDS011;32161;48.148;-1.554;2023-04-15T05:40:42;8.57;;;1.70;;
46463;SDS011;32161;48.148;-1.554;2023-04-15T05:43:10;13.07;;;2.33;;
46463;SDS011;32161;48.148;-1.554;2023-04-15T05:45:39;8.43;;;1.75;;
46463;SDS011;32161;48.148;-1.554;2023-04-15T05:48:06;19.40;;;3.05;;
46463;SDS011;32161;48.148;-1.554;2023-04-15T05:50:34;16.98;;;2.25;;
46463;SDS011;32161;48.148;-1.554;2023-04-15T05:53:01;12.77;;;1.85;;
46463;SDS011;32161;48.148;-1.554;2023-04-15T05:55:29;10.85;;;1.92;;
46463;SDS011;32161;48.148;-1.554;2023-04-15T05:57:57;9.23;;;2.03;;
46463;SDS011;32161;48.148;-1.554;2023-04-15T06:00:24;12.85;;;1.85;;
46463;SDS011;32161;48.148;-1.554;2023-04-15T06:02:53;9.68;;;2.60;;
46463;SDS011;32161;48.148;-1.554;2023-04-15T06:05:23;11.98;;;2.03;;
46463;SDS011;32161;48.148;-1.554;2023-04-15T06:07:50;13.25;;;1.73;;
46463;SDS011;32161;48.148;-1.554;2023-04-15T06:10:18;15.43;;;1.63;;
46463;SDS011;32161;48.148;-1.554;2023-04-15T06:12:45;10.00;;;2.00;;
46463;SDS011;32161;48.148;-1.554;2023-04-15T06:15:13;9.30;;;2.00;;
46463;SDS011;32161;48.148;-1.554;2023-04-15T06:17:41;5.78;;;1.67;;
46463;SDS011;32161;48.148;-1.554;2023-04-15T06:20:11;11.77;;;2.47;;
46463;SDS011;32161;48.148;-1.554;2023-04-15T06:22:39;16.17;;;2.60;;
46463;SDS011;32161;48.148;-1.554;2023-04-15T06:25:06;11.20;;;1.95;;
46463;SDS011;32161;48.148;-1.554;2023-04-15T06:27:35;13.48;;;2.45;;
46463;SDS011;32161;48.148;-1.554;2023-04-15T06:30:06;9.90;;;2.30;;
46463;SDS011;32161;48.148;-1.554;2023-04-15T06:32:37;9.35;;;2.75;;
46463;SDS011;32161;48.148;-1.554;2023-04-15T06:35:05;17.48;;;2.20;;
46463;SDS011;32161;48.148;-1.554;2023-04-15T06:37:35;12.10;;;2.45;;
46463;SDS011;32161;48.148;-1.554;2023-04-15T06:40:04;7.82;;;2.03;;
46463;SDS011;32161;48.148;-1.554;2023-04-15T06:42:34;13.30;;;3.22;;
46463;SDS011;32161;48.148;-1.554;2023-04-15T06:45:02;13.48;;;2.63;;
46463;SDS011;32161;48.148;-1.554;2023-04-15T06:47:31;11.10;;;1.95;;
46463;SDS011;32161;48.148;-1.554;2023-04-15T06:49:59;12.75;;;2.17;;
46463;SDS011;32161;48.148;-1.554;2023-04-15T06:52:28;12.93;;;2.33;;
46463;SDS011;32161;48.148;-1.554;2023-04-15T06:54:57;13.85;;;2.90;;
46463;SDS011;32161;48.148;-1.554;2023-04-15T06:57:25;18.90;;;2.35;;
46463;SDS011;32161;48.148;-1.554;2023-04-15T06:59:52;14.25;;;1.98;;
46463;SDS011;32161;48.148;-1.554;2023-04-15T07:02:20;15.27;;;2.85;;
46463;SDS011;32161;48.148;-1.554;2023-04-15T07:04:48;11.85;;;1.77;;
46463;SDS011;32161;48.148;-1.554;2023-04-15T07:07:16;13.48;;;2.38;;
46463;SDS011;32161;48.148;-1.554;2023-04-15T07:09:44;9.88;;;2.10;;
46463;SDS011;32161;48.148;-1.554;2023-04-15T07:12:13;9.93;;;1.65;;
46463;SDS011;32161;48.148;-1.554;2023-04-15T07:14:41;11.77;;;2.00;;
46463;SDS011;32161;48.148;-1.554;2023-04-15T07:17:09;11.80;;;2.30;;
46463;SDS011;32161;48.148;-1.554;2023-04-15T07:19:37;11.82;;;2.38;;
46463;SDS011;32161;48.148;-1.554;2023-04-15T07:22:05;11.48;;;3.03;;
46463;SDS011;32161;48.148;-1.554;2023-04-15T07:24:33;13.75;;;2.20;;
46463;SDS011;32161;48.148;-1.554;2023-04-15T07:27:00;7.53;;;1.77;;
46463;SDS011;32161;48.148;-1.554;2023-04-15T07:29:29;13.80;;;2.30;;
46463;SDS011;32161;48.148;-1.554;2023-04-15T07:31:57;14.60;;;2.30;;
46463;SDS011;32161;48.148;-1.554;2023-04-15T07:34:25;16.55;;;2.03;;
46463;SDS011;32161;48.148;-1.554;2023-04-15T07:36:53;10.07;;;2.03;;
46463;SDS011;32161;48.148;-1.554;2023-04-15T07:39:20;11.10;;;2.30;;
46463;SDS011;32161;48.148;-1.554;2023-04-15T07:41:48;10.73;;;1.80;;
46463;SDS011;32161;48.148;-1.554;2023-04-15T07:44:16;16.13;;;1.90;;
46463;SDS011;32161;48.148;-1.554;2023-04-15T07:46:45;17.00;;;2.92;;
46463;SDS011;32161;48.148;-1.554;2023-04-15T07:49:13;15.38;;;2.03;;
46463;SDS011;32161;48.148;-1.554;2023-04-15T07:51:40;8.52;;;2.17;;
46463;SDS011;32161;48.148;-1.554;2023-04-15T07:54:08;11.43;;;1.70;;
46463;SDS011;32161;48.148;-1.554;2023-04-15T07:56:36;13.40;;;2.25;;
46463;SDS011;32161;48.148;-1.554;2023-04-15T07:59:03;11.75;;;3.33;;
46463;SDS011;32161;48.148;-1.554;2023-04-15T08:01:31;6.85;;;1.60;;
46463;SDS011;32161;48.148;-1.554;2023-04-15T08:04:00;10.55;;;1.98;;
46463;SDS011;32161;48.148;-1.554;2023-04-15T08:06:28;11.30;;;1.63;;
46463;SDS011;32161;48.148;-1.554;2023-04-15T08:08:57;8.80;;;1.70;;
46463;SDS011;32161;48.148;-1.554;2023-04-15T08:11:24;11.35;;;2.35;;
46463;SDS011;32161;48.148;-1.554;2023-04-15T08:13:53;10.05;;;2.35;;
46463;SDS011;32161;48.148;-1.554;2023-04-15T08:16:21;19.42;;;1.83;;
46463;SDS011;32161;48.148;-1.554;2023-04-15T08:18:52;12.55;;;2.03;;
46463;SDS011;32161;48.148;-1.554;2023-04-15T08:21:23;8.05;;;1.92;;
46463;SDS011;32161;48.148;-1.554;2023-04-15T08:23:52;9.00;;;1.30;;
46463;SDS011;32161;48.148;-1.554;2023-04-15T08:26:20;9.00;;;2.00;;
46463;SDS011;32161;48.148;-1.554;2023-04-15T08:28:48;7.55;;;1.33;;
46463;SDS011;32161;48.148;-1.554;2023-04-15T08:31:17;8.55;;;1.55;;
46463;SDS011;32161;48.148;-1.554;2023-04-15T08:33:45;9.40;;;1.63;;
46463;SDS011;32161;48.148;-1.554;2023-04-15T08:36:12;7.95;;;1.23;;
46463;SDS011;32161;48.148;-1.554;2023-04-15T08:38:43;7.97;;;1.30;;
46463;SDS011;32161;48.148;-1.554;2023-04-15T08:41:11;7.10;;;1.23;;
46463;SDS011;32161;48.148;-1.554;2023-04-15T08:43:49;6.40;;;1.17;;
46463;SDS011;32161;48.148;-1.554;2023-04-15T08:46:22;4.80;;;1.10;;
46463;SDS011;32161;48.148;-1.554;2023-04-15T08:48:50;5.63;;;1.33;;
46463;SDS011;32161;48.148;-1.554;2023-04-15T08:51:21;2.97;;;1.23;;
46463;SDS011;32161;48.148;-1.554;2023-04-15T08:53:51;7.07;;;0.98;;
46463;SDS011;32161;48.148;-1.554;2023-04-15T08:56:19;6.00;;;1.10;;
46463;SDS011;32161;48.148;-1.554;2023-04-15T08:58:51;5.60;;;0.88;;
46463;SDS011;32161;48.148;-1.554;2023-04-15T09:01:18;8.50;;;1.77;;
46463;SDS011;32161;48.148;-1.554;2023-04-15T09:03:47;5.28;;;1.10;;
46463;SDS011;32161;48.148;-1.554;2023-04-15T09:06:15;4.18;;;0.93;;
46463;SDS011;32161;48.148;-1.554;2023-04-15T09:08:43;7.00;;;2.05;;
46463;SDS011;32161;48.148;-1.554;2023-04-15T09:11:12;2.10;;;0.63;;
46463;SDS011;32161;48.148;-1.554;2023-04-15T09:13:42;6.77;;;1.07;;
46463;SDS011;32161;48.148;-1.554;2023-04-15T09:16:09;3.42;;;0.70;;
46463;SDS011;32161;48.148;-1.554;2023-04-15T09:18:37;2.25;;;0.70;;
46463;SDS011;32161;48.148;-1.554;2023-04-15T09:21:05;3.33;;;0.80;;
46463;SDS011;32161;48.148;-1.554;2023-04-15T09:23:35;4.13;;;0.85;;
46463;SDS011;32161;48.148;-1.554;2023-04-15T09:26:05;5.65;;;1.00;;
46463;SDS011;32161;48.148;-1.554;2023-04-15T09:28:34;2.25;;;0.75;;
46463;SDS011;32161;48.148;-1.554;2023-04-15T09:31:07;5.78;;;0.85;;
46463;SDS011;32161;48.148;-1.554;2023-04-15T09:33:40;1.75;;;0.80;;
46463;SDS011;32161;48.148;-1.554;2023-04-15T09:36:22;3.60;;;0.70;;
46463;SDS011;32161;48.148;-1.554;2023-04-15T09:38:54;5.03;;;1.30;;
46463;SDS011;32161;48.148;-1.554;2023-04-15T09:41:22;4.47;;;0.90;;
46463;SDS011;32161;48.148;-1.554;2023-04-15T09:43:52;5.10;;;0.70;;
46463;SDS011;32161;48.148;-1.554;2023-04-15T09:46:19;4.07;;;0.70;;
46463;SDS011;32161;48.148;-1.554;2023-04-15T09:49:08;6.45;;;0.88;;
46463;SDS011;32161;48.148;-1.554;2023-04-15T09:51:37;4.35;;;0.80;;
46463;SDS011;32161;48.148;-1.554;2023-04-15T09:54:05;5.68;;;1.73;;
46463;SDS011;32161;48.148;-1.554;2023-04-15T09:56:33;6.03;;;1.02;;
46463;SDS011;32161;48.148;-1.554;2023-04-15T09:59:04;2.80;;;0.82;;
46463;SDS011;32161;48.148;-1.554;2023-04-15T10:01:32;3.17;;;1.10;;
46463;SDS011;32161;48.148;-1.554;2023-04-15T10:04:01;5.07;;;0.60;;
46463;SDS011;32161;48.148;-1.554;2023-04-15T10:06:30;2.00;;;0.90;;
46463;SDS011;32161;48.148;-1.554;2023-04-15T10:08:59;5.05;;;1.75;;
46463;SDS011;32161;48.148;-1.554;2023-04-15T10:11:28;4.85;;;0.70;;
46463;SDS011;32161;48.148;-1.554;2023-04-15T10:13:57;8.40;;;0.82;;
46463;SDS011;32161;48.148;-1.554;2023-04-15T10:16:26;3.50;;;1.13;;
46463;SDS011;32161;48.148;-1.554;2023-04-15T10:18:55;7.00;;;1.40;;
46463;SDS011;32161;48.148;-1.554;2023-04-15T10:21:26;3.63;;;0.90;;
46463;SDS011;32161;48.148;-1.554;2023-04-15T10:23:56;4.32;;;0.77;;
46463;SDS011;32161;48.148;-1.554;2023-04-15T10:26:26;2.03;;;0.88;;
46463;SDS011;32161;48.148;-1.554;2023-04-15T10:28:55;4.28;;;1.33;;
46463;SDS011;32161;48.148;-1.554;2023-04-15T10:31:23;4.80;;;0.70;;
46463;SDS011;32161;48.148;-1.554;2023-04-15T10:33:52;4.07;;;1.00;;
46463;SDS011;32161;48.148;-1.554;2023-04-15T10:36:21;3.38;;;0.95;;
46463;SDS011;32161;48.148;-1.554;2023-04-15T10:38:49;2.63;;;0.80;;
46463;SDS011;32161;48.148;-1.554;2023-04-15T10:41:17;6.22;;;1.00;;
46463;SDS011;32161;48.148;-1.554;2023-04-15T10:43:50;4.65;;;1.10;;
46463;SDS011;32161;48.148;-1.554;2023-04-15T10:46:22;9.68;;;1.10;;
46463;SDS011;32161;48.148;-1.554;2023-04-15T10:49:05;3.65;;;0.63;;
46463;SDS011;32161;48.148;-1.554;2023-04-15T10:51:36;3.13;;;0.95;;
46463;SDS011;32161;48.148;-1.554;2023-04-15T10:54:07;5.72;;;1.20;;
46463;SDS011;32161;48.148;-1.554;2023-04-15T10:56:40;3.40;;;1.05;;
46463;SDS011;32161;48.148;-1.554;2023-04-15T10:59:09;5.00;;;0.88;;
46463;SDS011;32161;48.148;-1.554;2023-04-15T11:07:34;8.88;;;1.10;;
46463;SDS011;32161;48.148;-1.554;2023-04-15T11:10:03;2.90;;;0.60;;
46463;SDS011;32161;48.148;-1.554;2023-04-15T11:13:22;4.25;;;0.73;;
46463;SDS011;32161;48.148;-1.554;2023-04-15T11:15:57;7.13;;;1.52;;
46463;SDS011;32161;48.148;-1.554;2023-04-15T11:18:27;1.48;;;0.85;;
46463;SDS011;32161;48.148;-1.554;2023-04-15T11:21:04;3.75;;;1.00;;
46463;SDS011;32161;48.148;-1.554;2023-04-15T11:23:35;3.58;;;0.73;;
46463;SDS011;32161;48.148;-1.554;2023-04-15T11:28:36;3.73;;;0.60;;
46463;SDS011;32161;48.148;-1.554;2023-04-15T11:31:06;1.23;;;0.70;;
46463;SDS011;32161;48.148;-1.554;2023-04-15T11:33:36;6.30;;;1.30;;
46463;SDS011;32161;48.148;-1.554;2023-04-15T11:36:21;1.77;;;0.70;;
46463;SDS011;32161;48.148;-1.554;2023-04-15T11:38:54;6.28;;;0.90;;
46463;SDS011;32161;48.148;-1.554;2023-04-15T11:41:25;1.58;;;0.77;;
46463;SDS011;32161;48.148;-1.554;2023-04-15T11:43:52;3.13;;;0.73;;
46463;SDS011;32161;48.148;-1.554;2023-04-15T11:46:20;2.22;;;0.55;;
46463;SDS011;32161;48.148;-1.554;2023-04-15T11:48:54;1.13;;;0.57;;
46463;SDS011;32161;48.148;-1.554;2023-04-15T11:51:23;2.80;;;0.70;;
46463;SDS011;32161;48.148;-1.554;2023-04-15T11:53:51;2.22;;;0.52;;
46463;SDS011;32161;48.148;-1.554;2023-04-15T11:56:20;2.72;;;0.82;;
46463;SDS011;32161;48.148;-1.554;2023-04-15T11:58:50;3.42;;;0.88;;
46463;SDS011;32161;48.148;-1.554;2023-04-15T12:01:21;4.95;;;1.02;;
46463;SDS011;32161;48.148;-1.554;2023-04-15T12:03:57;1.63;;;0.80;;
46463;SDS011;32161;48.148;-1.554;2023-04-15T12:06:31;3.35;;;0.80;;
46463;SDS011;32161;48.148;-1.554;2023-04-15T12:09:06;1.38;;;0.60;;
46463;SDS011;32161;48.148;-1.554;2023-04-15T12:11:37;4.53;;;1.20;;
46463;SDS011;32161;48.148;-1.554;2023-04-15T12:14:19;2.17;;;0.75;;
46463;SDS011;32161;48.148;-1.554;2023-04-15T12:16:52;2.25;;;0.50;;
46463;SDS011;32161;48.148;-1.554;2023-04-15T12:19:22;2.15;;;0.50;;
46463;SDS011;32161;48.148;-1.554;2023-04-15T12:21:56;3.20;;;1.45;;
46463;SDS011;32161;48.148;-1.554;2023-04-15T12:24:25;2.92;;;0.90;;
46463;SDS011;32161;48.148;-1.554;2023-04-15T12:26:54;3.05;;;1.33;;
46463;SDS011;32161;48.148;-1.554;2023-04-15T12:29:24;4.32;;;0.98;;
46463;SDS011;32161;48.148;-1.554;2023-04-15T12:31:53;2.55;;;0.80;;
46463;SDS011;32161;48.148;-1.554;2023-04-15T12:34:27;4.35;;;0.88;;
46463;SDS011;32161;48.148;-1.554;2023-04-15T12:36:58;1.42;;;0.60;;
46463;SDS011;32161;48.148;-1.554;2023-04-15T12:39:29;6.78;;;1.30;;
46463;SDS011;32161;48.148;-1.554;2023-04-15T12:42:00;4.05;;;0.60;;
46463;SDS011;32161;48.148;-1.554;2023-04-15T12:44:29;2.10;;;0.85;;
46463;SDS011;32161;48.148;-1.554;2023-04-15T12:46:58;3.78;;;0.60;;
46463;SDS011;32161;48.148;-1.554;2023-04-15T12:49:25;5.45;;;1.00;;
46463;SDS011;32161;48.148;-1.554;2023-04-15T12:51:55;2.95;;;0.82;;
46463;SDS011;32161;48.148;-1.554;2023-04-15T12:54:25;3.83;;;0.80;;
46463;SDS011;32161;48.148;-1.554;2023-04-15T12:56:53;3.45;;;0.30;;
46463;SDS011;32161;48.148;-1.554;2023-04-15T12:59:22;4.97;;;0.73;;
46463;SDS011;32161;48.148;-1.554;2023-04-15T13:01:50;3.03;;;0.73;;
46463;SDS011;32161;48.148;-1.554;2023-04-15T13:04:18;1.75;;;0.82;;
46463;SDS011;32161;48.148;-1.554;2023-04-15T13:06:46;2.85;;;0.73;;
46463;SDS011;32161;48.148;-1.554;2023-04-15T13:09:16;4.07;;;0.82;;
46463;SDS011;32161;48.148;-1.554;2023-04-15T13:11:43;5.55;;;1.60;;
46463;SDS011;32161;48.148;-1.554;2023-04-15T13:14:11;4.80;;;1.35;;
46463;SDS011;32161;48.148;-1.554;2023-04-15T13:16:39;2.05;;;0.70;;
46463;SDS011;32161;48.148;-1.554;2023-04-15T13:19:06;5.90;;;0.80;;
46463;SDS011;32161;48.148;-1.554;2023-04-15T13:21:34;5.70;;;1.67;;
46463;SDS011;32161;48.148;-1.554;2023-04-15T13:24:02;4.43;;;1.10;;
46463;SDS011;32161;48.148;-1.554;2023-04-15T13:26:32;3.38;;;0.75;;
46463;SDS011;32161;48.148;-1.554;2023-04-15T13:29:00;1.67;;;0.60;;
46463;SDS011;32161;48.148;-1.554;2023-04-15T13:31:27;2.60;;;0.60;;
46463;SDS011;32161;48.148;-1.554;2023-04-15T13:33:55;4.07;;;0.85;;
46463;SDS011;32161;48.148;-1.554;2023-04-15T13:36:23;2.42;;;0.98;;
46463;SDS011;32161;48.148;-1.554;2023-04-15T13:38:51;7.82;;;1.02;;
46463;SDS011;32161;48.148;-1.554;2023-04-15T13:41:19;2.10;;;0.68;;
46463;SDS011;32161;48.148;-1.554;2023-04-15T13:43:47;5.53;;;0.80;;
46463;SDS011;32161;48.148;-1.554;2023-04-15T13:46:15;5.30;;;0.70;;
46463;SDS011;32161;48.148;-1.554;2023-04-15T13:48:43;4.22;;;0.90;;
46463;SDS011;32161;48.148;-1.554;2023-04-15T13:51:10;1.70;;;0.63;;
46463;SDS011;32161;48.148;-1.554;2023-04-15T13:53:38;2.25;;;0.60;;
46463;SDS011;32161;48.148;-1.554;2023-04-15T13:56:06;1.27;;;0.80;;
46463;SDS011;32161;48.148;-1.554;2023-04-15T13:58:34;5.88;;;0.80;;
46463;SDS011;32161;48.148;-1.554;2023-04-15T14:01:04;5.25;;;0.82;;
46463;SDS011;32161;48.148;-1.554;2023-04-15T14:03:32;2.55;;;0.80;;
46463;SDS011;32161;48.148;-1.554;2023-04-15T14:06:00;3.05;;;0.57;;
46463;SDS011;32161;48.148;-1.554;2023-04-15T14:08:28;5.18;;;0.88;;
46463;SDS011;32161;48.148;-1.554;2023-04-15T14:10:56;5.43;;;0.70;;
46463;SDS011;32161;48.148;-1.554;2023-04-15T14:13:24;2.10;;;1.33;;
46463;SDS011;32161;48.148;-1.554;2023-04-15T14:15:51;4.30;;;1.33;;
46463;SDS011;32161;48.148;-1.554;2023-04-15T14:18:20;1.23;;;0.55;;
46463;SDS011;32161;48.148;-1.554;2023-04-15T14:20:48;0.55;;;0.50;;
46463;SDS011;32161;48.148;-1.554;2023-04-15T14:23:15;1.48;;;0.52;;
46463;SDS011;32161;48.148;-1.554;2023-04-15T14:25:44;2.17;;;0.57;;
46463;SDS011;32161;48.148;-1.554;2023-04-15T14:28:11;3.55;;;0.40;;
46463;SDS011;32161;48.148;-1.554;2023-04-15T14:30:39;1.67;;;1.02;;
46463;SDS011;32161;48.148;-1.554;2023-04-15T14:33:07;1.77;;;0.52;;
46463;SDS011;32161;48.148;-1.554;2023-04-15T14:35:36;3.20;;;0.50;;
46463;SDS011;32161;48.148;-1.554;2023-04-15T14:38:04;2.35;;;0.90;;
46463;SDS011;32161;48.148;-1.554;2023-04-15T14:40:34;1.27;;;0.40;;
46463;SDS011;32161;48.148;-1.554;2023-04-15T14:43:03;1.00;;;0.52;;
46463;SDS011;32161;48.148;-1.554;2023-04-15T14:45:31;3.38;;;0.70;;
46463;SDS011;32161;48.148;-1.554;2023-04-15T14:47:59;1.85;;;0.40;;
46463;SDS011;32161;48.148;-1.554;2023-04-15T14:50:26;2.13;;;0.50;;